GLD879 SSCI-SDXJ
Flight info
| Callsign | GLD879 |
|---|---|
| Flight time | 0h 35m |
| Altitude | 5500 |
| Route | DCT 1832S05427W 1818S05339W 1819S05325W DCT |
| Aircraft | BE35/M-SDFGIRY/S |
Departure
| Time | 2026-05-08 23:42 |
|---|---|
| Airport | Coxim Airport (SSCI) |
Arrival
| Time | 2026-05-09 00:17 |
|---|---|
| Airport | Costa Rica Airport (SDXJ) |
| Time | Latitude | Longitude | Altitude | Speed | Heading |
|---|---|---|---|---|---|
| 2026-05-08 23:35 | -18.47362 | -54.71639 | 959 ft | 0 kts | 49° |
| 2026-05-08 23:38 | -18.47352 | -54.71628 | 962 ft | 7 kts | 51° |
| 2026-05-08 23:39 | -18.47351 | -54.71541 | 960 ft | 17 kts | 106° |
| 2026-05-08 23:39 | -18.47358 | -54.71520 | 962 ft | 5 kts | 111° |
| 2026-05-08 23:39 | -18.47387 | -54.71435 | 962 ft | 15 kts | 90° |
| 2026-05-08 23:39 | -18.47304 | -54.71390 | 963 ft | 15 kts | 7° |
| 2026-05-08 23:40 | -18.47216 | -54.71391 | 962 ft | 8 kts | 37° |
| 2026-05-08 23:40 | -18.47238 | -54.71374 | 962 ft | 0 kts | 188° |
| 2026-05-08 23:41 | -18.47394 | -54.71399 | 961 ft | 65 kts | 188° |
| 2026-05-08 23:41 | -18.48075 | -54.71506 | 1009 ft | 122 kts | 189° |
| 2026-05-08 23:42 | -18.48965 | -54.71647 | 1292 ft | 140 kts | 186° |
| 2026-05-08 23:42 | -18.50008 | -54.71678 | 1464 ft | 158 kts | 180° |
| 2026-05-08 23:42 | -18.51050 | -54.71261 | 1644 ft | 169 kts | 136° |
| 2026-05-08 23:42 | -18.51744 | -54.70247 | 1837 ft | 173 kts | 120° |
| 2026-05-08 23:43 | -18.51957 | -54.69012 | 2033 ft | 177 kts | 78° |
| 2026-05-08 23:43 | -18.51421 | -54.67859 | 2215 ft | 177 kts | 53° |
| 2026-05-08 23:43 | -18.50770 | -54.66742 | 2433 ft | 180 kts | 55° |
| 2026-05-08 23:43 | -18.50116 | -54.65593 | 2633 ft | 184 kts | 54° |
| 2026-05-08 23:44 | -18.49458 | -54.64433 | 2820 ft | 183 kts | 54° |
| 2026-05-08 23:44 | -18.48809 | -54.63289 | 3010 ft | 180 kts | 54° |
| 2026-05-08 23:44 | -18.48188 | -54.62178 | 3197 ft | 178 kts | 55° |
| 2026-05-08 23:44 | -18.47569 | -54.61058 | 3387 ft | 177 kts | 54° |
| 2026-05-08 23:45 | -18.46952 | -54.59937 | 3571 ft | 175 kts | 55° |
| 2026-05-08 23:45 | -18.46729 | -54.58674 | 3761 ft | 185 kts | 97° |
| 2026-05-08 23:45 | -18.47372 | -54.57497 | 3952 ft | 189 kts | 133° |
| 2026-05-08 23:45 | -18.48321 | -54.56529 | 4151 ft | 191 kts | 134° |
| 2026-05-08 23:46 | -18.49283 | -54.55561 | 4348 ft | 191 kts | 134° |
| 2026-05-08 23:46 | -18.50261 | -54.54591 | 4539 ft | 194 kts | 135° |
| 2026-05-08 23:46 | -18.51215 | -54.53587 | 4742 ft | 195 kts | 127° |
| 2026-05-08 23:46 | -18.51905 | -54.52380 | 4925 ft | 191 kts | 105° |
| 2026-05-08 23:47 | -18.52209 | -54.51034 | 5116 ft | 187 kts | 94° |
| 2026-05-08 23:47 | -18.52430 | -54.49682 | 5306 ft | 186 kts | 95° |
| 2026-05-08 23:47 | -18.52681 | -54.48334 | 5436 ft | 192 kts | 96° |
| 2026-05-08 23:47 | -18.52955 | -54.46932 | 5441 ft | 198 kts | 97° |
| 2026-05-08 23:48 | -18.53223 | -54.45501 | 5445 ft | 194 kts | 92° |
| 2026-05-08 23:48 | -18.53109 | -54.44160 | 5435 ft | 179 kts | 69° |
| 2026-05-08 23:48 | -18.52756 | -54.42935 | 5437 ft | 175 kts | 66° |
| 2026-05-08 23:48 | -18.52387 | -54.41710 | 5434 ft | 176 kts | 66° |
| 2026-05-08 23:49 | -18.52026 | -54.40476 | 5438 ft | 176 kts | 66° |
| 2026-05-08 23:49 | -18.51670 | -54.39250 | 5442 ft | 176 kts | 67° |
| 2026-05-08 23:49 | -18.51311 | -54.38007 | 5440 ft | 178 kts | 66° |
| 2026-05-08 23:49 | -18.50947 | -54.36759 | 5439 ft | 178 kts | 66° |
| 2026-05-08 23:50 | -18.50586 | -54.35513 | 5441 ft | 177 kts | 67° |
| 2026-05-08 23:50 | -18.50226 | -54.34269 | 5442 ft | 177 kts | 67° |
| 2026-05-08 23:50 | -18.49868 | -54.33030 | 5440 ft | 176 kts | 67° |
| 2026-05-08 23:50 | -18.49509 | -54.31792 | 5438 ft | 176 kts | 67° |
| 2026-05-08 23:51 | -18.49151 | -54.30556 | 5439 ft | 176 kts | 67° |
| 2026-05-08 23:51 | -18.48795 | -54.29332 | 5440 ft | 177 kts | 67° |
| 2026-05-08 23:51 | -18.48431 | -54.28076 | 5439 ft | 177 kts | 67° |
| 2026-05-08 23:51 | -18.48071 | -54.26836 | 5445 ft | 177 kts | 66° |
| 2026-05-08 23:52 | -18.47709 | -54.25595 | 5441 ft | 177 kts | 67° |
| 2026-05-08 23:52 | -18.47356 | -54.24371 | 5439 ft | 177 kts | 68° |
| 2026-05-08 23:52 | -18.46997 | -54.23136 | 5441 ft | 177 kts | 67° |
| 2026-05-08 23:52 | -18.46636 | -54.21887 | 5438 ft | 179 kts | 67° |
| 2026-05-08 23:53 | -18.46269 | -54.20639 | 5442 ft | 179 kts | 66° |
| 2026-05-08 23:53 | -18.45899 | -54.19378 | 5441 ft | 181 kts | 68° |
| 2026-05-08 23:53 | -18.45539 | -54.18122 | 5439 ft | 178 kts | 67° |
| 2026-05-08 23:53 | -18.45179 | -54.16884 | 5440 ft | 177 kts | 67° |
| 2026-05-08 23:54 | -18.44818 | -54.15641 | 5438 ft | 177 kts | 67° |
| 2026-05-08 23:54 | -18.44454 | -54.14397 | 5442 ft | 179 kts | 67° |
| 2026-05-08 23:54 | -18.44087 | -54.13134 | 5443 ft | 181 kts | 68° |
| 2026-05-08 23:55 | -18.43348 | -54.10594 | 5443 ft | 180 kts | 68° |
| 2026-05-08 23:55 | -18.42983 | -54.09340 | 5438 ft | 178 kts | 67° |
| 2026-05-08 23:55 | -18.42618 | -54.08087 | 5442 ft | 178 kts | 68° |
| 2026-05-08 23:55 | -18.42252 | -54.06827 | 5445 ft | 180 kts | 67° |
| 2026-05-08 23:56 | -18.41881 | -54.05563 | 5442 ft | 180 kts | 67° |
| 2026-05-08 23:56 | -18.41512 | -54.04301 | 5446 ft | 181 kts | 67° |
| 2026-05-08 23:56 | -18.41146 | -54.03053 | 5445 ft | 180 kts | 67° |
| 2026-05-08 23:56 | -18.40776 | -54.01777 | 5440 ft | 179 kts | 66° |
| 2026-05-08 23:57 | -18.40413 | -54.00538 | 5439 ft | 180 kts | 67° |
| 2026-05-08 23:57 | -18.40169 | -53.99686 | 5439 ft | 179 kts | 67° |
| 2026-05-08 23:57 | -18.39682 | -53.98026 | 5439 ft | 179 kts | 67° |
| 2026-05-08 23:57 | -18.39438 | -53.97193 | 5435 ft | 179 kts | 66° |
| 2026-05-08 23:58 | -18.38950 | -53.95523 | 5442 ft | 177 kts | 66° |
| 2026-05-08 23:58 | -18.38710 | -53.94701 | 5440 ft | 178 kts | 66° |
| 2026-05-08 23:58 | -18.38344 | -53.93453 | 5441 ft | 179 kts | 66° |
| 2026-05-08 23:58 | -18.37977 | -53.92202 | 5437 ft | 178 kts | 67° |
| 2026-05-08 23:59 | -18.37608 | -53.90934 | 5442 ft | 179 kts | 67° |
| 2026-05-08 23:59 | -18.37240 | -53.89677 | 5442 ft | 180 kts | 67° |
| 2026-05-08 23:59 | -18.36875 | -53.88434 | 5442 ft | 181 kts | 67° |
| 2026-05-08 23:59 | -18.36505 | -53.87169 | 5448 ft | 181 kts | 67° |
| 2026-05-09 00:00 | -18.36134 | -53.85902 | 5447 ft | 181 kts | 67° |
| 2026-05-09 00:00 | -18.35761 | -53.84622 | 5444 ft | 181 kts | 67° |
| 2026-05-09 00:00 | -18.35391 | -53.83361 | 5445 ft | 179 kts | 67° |
| 2026-05-09 00:00 | -18.35026 | -53.82118 | 5445 ft | 180 kts | 67° |
| 2026-05-09 00:01 | -18.34656 | -53.80857 | 5442 ft | 180 kts | 67° |
| 2026-05-09 00:01 | -18.34287 | -53.79599 | 5437 ft | 179 kts | 67° |
| 2026-05-09 00:01 | -18.33920 | -53.78342 | 5447 ft | 180 kts | 67° |
| 2026-05-09 00:01 | -18.33551 | -53.77086 | 5448 ft | 180 kts | 67° |
| 2026-05-09 00:02 | -18.33178 | -53.75817 | 5452 ft | 181 kts | 67° |
| 2026-05-09 00:02 | -18.32806 | -53.74548 | 5448 ft | 182 kts | 67° |
| 2026-05-09 00:02 | -18.32435 | -53.73286 | 5448 ft | 180 kts | 67° |
| 2026-05-09 00:02 | -18.32067 | -53.72032 | 5451 ft | 179 kts | 67° |
| 2026-05-09 00:03 | -18.31701 | -53.70778 | 5446 ft | 179 kts | 67° |
| 2026-05-09 00:03 | -18.31332 | -53.69531 | 5450 ft | 179 kts | 67° |
| 2026-05-09 00:03 | -18.30961 | -53.68271 | 5447 ft | 180 kts | 67° |
| 2026-05-09 00:03 | -18.30593 | -53.67013 | 5446 ft | 180 kts | 67° |
| 2026-05-09 00:04 | -18.30222 | -53.65755 | 5448 ft | 179 kts | 67° |
| 2026-05-09 00:04 | -18.29999 | -53.64457 | 5452 ft | 184 kts | 85° |
| 2026-05-09 00:04 | -18.30104 | -53.63109 | 5455 ft | 185 kts | 91° |
| 2026-05-09 00:04 | -18.30233 | -53.61756 | 5461 ft | 186 kts | 90° |
| 2026-05-09 00:05 | -18.30333 | -53.60398 | 5463 ft | 186 kts | 89° |
| 2026-05-09 00:05 | -18.30430 | -53.59043 | 5460 ft | 185 kts | 89° |
| 2026-05-09 00:05 | -18.30527 | -53.57697 | 5465 ft | 185 kts | 89° |
| 2026-05-09 00:05 | -18.30624 | -53.56343 | 5466 ft | 185 kts | 89° |
| 2026-05-09 00:06 | -18.30717 | -53.55005 | 5470 ft | 187 kts | 89° |
| 2026-05-09 00:06 | -18.30816 | -53.53636 | 5470 ft | 187 kts | 90° |
| 2026-05-09 00:06 | -18.30913 | -53.52277 | 5475 ft | 186 kts | 89° |
| 2026-05-09 00:06 | -18.31009 | -53.50916 | 5477 ft | 187 kts | 90° |
| 2026-05-09 00:07 | -18.31108 | -53.49552 | 5473 ft | 187 kts | 90° |
| 2026-05-09 00:07 | -18.31206 | -53.48180 | 5481 ft | 188 kts | 90° |
| 2026-05-09 00:07 | -18.31304 | -53.46799 | 5482 ft | 190 kts | 89° |
| 2026-05-09 00:07 | -18.31401 | -53.45412 | 5483 ft | 190 kts | 90° |
| 2026-05-09 00:08 | -18.31501 | -53.44018 | 5476 ft | 191 kts | 90° |
| 2026-05-09 00:08 | -18.31601 | -53.42630 | 5486 ft | 191 kts | 90° |
| 2026-05-09 00:08 | -18.31950 | -53.41276 | 5478 ft | 195 kts | 116° |
| 2026-05-09 00:08 | -18.32717 | -53.40103 | 5482 ft | 195 kts | 126° |
| 2026-05-09 00:09 | -18.33551 | -53.38984 | 5482 ft | 193 kts | 126° |
| 2026-05-09 00:09 | -18.34371 | -53.37845 | 5489 ft | 197 kts | 124° |
| 2026-05-09 00:09 | -18.35178 | -53.36690 | 5484 ft | 196 kts | 124° |
| 2026-05-09 00:09 | -18.35985 | -53.35542 | 5482 ft | 194 kts | 124° |
| 2026-05-09 00:10 | -18.36787 | -53.34403 | 5483 ft | 193 kts | 124° |
| 2026-05-09 00:10 | -18.37591 | -53.33264 | 5485 ft | 194 kts | 124° |
| 2026-05-09 00:10 | -18.38398 | -53.32118 | 5489 ft | 194 kts | 124° |
| 2026-05-09 00:10 | -18.39155 | -53.31045 | 5416 ft | 174 kts | 124° |
| 2026-05-09 00:11 | -18.39863 | -53.30033 | 5169 ft | 170 kts | 124° |
| 2026-05-09 00:11 | -18.40557 | -53.29045 | 4917 ft | 164 kts | 124° |
| 2026-05-09 00:11 | -18.41242 | -53.28074 | 4713 ft | 165 kts | 125° |
| 2026-05-09 00:11 | -18.41915 | -53.27119 | 4471 ft | 159 kts | 125° |
| 2026-05-09 00:12 | -18.42568 | -53.26188 | 4251 ft | 158 kts | 125° |
| 2026-05-09 00:12 | -18.43212 | -53.25269 | 4034 ft | 154 kts | 125° |
| 2026-05-09 00:12 | -18.43850 | -53.24363 | 3823 ft | 155 kts | 125° |
| 2026-05-09 00:12 | -18.44501 | -53.23437 | 3603 ft | 154 kts | 126° |
| 2026-05-09 00:13 | -18.45131 | -53.22543 | 3411 ft | 148 kts | 126° |
| 2026-05-09 00:13 | -18.45730 | -53.21689 | 3393 ft | 142 kts | 125° |
| 2026-05-09 00:13 | -18.46309 | -53.20864 | 3383 ft | 140 kts | 126° |
| 2026-05-09 00:13 | -18.46862 | -53.20074 | 3384 ft | 130 kts | 126° |
| 2026-05-09 00:14 | -18.47389 | -53.19326 | 3391 ft | 128 kts | 125° |
| 2026-05-09 00:14 | -18.47924 | -53.18565 | 3394 ft | 129 kts | 126° |
| 2026-05-09 00:14 | -18.48460 | -53.17802 | 3390 ft | 130 kts | 126° |
| 2026-05-09 00:14 | -18.49001 | -53.17034 | 3386 ft | 132 kts | 126° |
| 2026-05-09 00:15 | -18.49476 | -53.16227 | 3384 ft | 128 kts | 100° |
| 2026-05-09 00:15 | -18.49340 | -53.15351 | 3397 ft | 121 kts | 66° |
| 2026-05-09 00:15 | -18.49099 | -53.14487 | 3392 ft | 123 kts | 69° |
| 2026-05-09 00:15 | -18.48870 | -53.13618 | 3397 ft | 123 kts | 70° |
| 2026-05-09 00:16 | -18.48595 | -53.12771 | 3431 ft | 114 kts | 41° |
| 2026-05-09 00:16 | -18.47958 | -53.12840 | 3293 ft | 121 kts | 289° |
| 2026-05-09 00:16 | -18.48295 | -53.13682 | 3031 ft | 131 kts | 237° |
| 2026-05-09 00:16 | -18.48618 | -53.14560 | 2817 ft | 128 kts | 259° |
| 2026-05-09 00:17 | -18.48799 | -53.15390 | 2629 ft | 110 kts | 256° |
| 2026-05-09 00:17 | -18.48973 | -53.16151 | 2472 ft | 105 kts | 256° |
| 2026-05-09 00:17 | -18.49108 | -53.16756 | 2430 ft | 46 kts | 260° |
| 2026-05-09 00:17 | -18.49134 | -53.16852 | 2430 ft | 4 kts | 154° |
| 2026-05-09 00:18 | -18.49119 | -53.16790 | 2431 ft | 12 kts | 73° |
| 2026-05-09 00:18 | -18.49098 | -53.16706 | 2432 ft | 12 kts | 78° |
| 2026-05-09 00:18 | -18.49079 | -53.16618 | 2434 ft | 14 kts | 76° |
| 2026-05-09 00:18 | -18.49057 | -53.16521 | 2436 ft | 9 kts | 82° |
| 2026-05-09 00:19 | -18.49099 | -53.16489 | 2435 ft | 9 kts | 172° |
| 2026-05-09 00:19 | -18.49140 | -53.16511 | 2431 ft | 0 kts | 252° |